sensor_id;sensor_type;location;lat;lon;timestamp;pressure;altitude;pressure_sealevel;temperature;humidity
59315;BME280;46521;50.160;20.802;2022-09-14T00:04:11;98828.45;;;16.37;60.91
59315;BME280;46521;50.160;20.802;2022-09-14T00:14:13;98818.52;;;16.44;61.08
59315;BME280;46521;50.160;20.802;2022-09-14T00:24:14;98804.94;;;16.46;61.10
59315;BME280;46521;50.160;20.802;2022-09-14T00:34:16;98809.22;;;16.47;61.54
59315;BME280;46521;50.160;20.802;2022-09-14T00:54:19;98803.47;;;16.31;62.05
59315;BME280;46521;50.160;20.802;2022-09-14T01:04:21;98800.78;;;16.19;62.34
59315;BME280;46521;50.160;20.802;2022-09-14T01:14:28;98788.56;;;16.12;62.21
59315;BME280;46521;50.160;20.802;2022-09-14T01:24:42;98791.38;;;15.98;62.43
59315;BME280;46521;50.160;20.802;2022-09-14T01:34:54;98779.78;;;15.93;62.68
59315;BME280;46521;50.160;20.802;2022-09-14T01:45:00;98773.03;;;15.90;62.84
59315;BME280;46521;50.160;20.802;2022-09-14T01:55:11;98765.70;;;15.85;62.85
59315;BME280;46521;50.160;20.802;2022-09-14T02:05:31;98761.91;;;15.75;63.31
59315;BME280;46521;50.160;20.802;2022-09-14T02:15:35;98755.86;;;15.67;64.03
59315;BME280;46521;50.160;20.802;2022-09-14T02:25:37;98747.69;;;15.62;63.66
59315;BME280;46521;50.160;20.802;2022-09-14T02:35:53;98746.14;;;15.55;63.76
59315;BME280;46521;50.160;20.802;2022-09-14T02:46:07;98746.22;;;15.48;64.05
59315;BME280;46521;50.160;20.802;2022-09-14T02:56:10;98735.06;;;15.39;64.16
59315;BME280;46521;50.160;20.802;2022-09-14T03:06:12;98731.28;;;15.28;64.26
59315;BME280;46521;50.160;20.802;2022-09-14T03:16:15;98739.94;;;15.24;64.61
59315;BME280;46521;50.160;20.802;2022-09-14T03:26:20;98730.75;;;15.20;65.02
59315;BME280;46521;50.160;20.802;2022-09-14T03:36:22;98729.80;;;15.14;65.15
59315;BME280;46521;50.160;20.802;2022-09-14T03:46:25;98719.19;;;15.07;65.30
59315;BME280;46521;50.160;20.802;2022-09-14T03:56:26;98730.94;;;15.00;65.39
59315;BME280;46521;50.160;20.802;2022-09-14T04:06:28;98727.47;;;14.99;65.41
59315;BME280;46521;50.160;20.802;2022-09-14T04:16:30;98723.78;;;15.00;65.71
59315;BME280;46521;50.160;20.802;2022-09-14T04:26:32;98718.50;;;14.93;65.67
59315;BME280;46521;50.160;20.802;2022-09-14T04:36:33;98715.25;;;14.91;65.83
59315;BME280;46521;50.160;20.802;2022-09-14T04:46:35;98721.13;;;15.00;65.91
59315;BME280;46521;50.160;20.802;2022-09-14T04:56:40;98722.25;;;15.11;65.98
59315;BME280;46521;50.160;20.802;2022-09-14T05:06:42;98722.98;;;15.37;66.25
59315;BME280;46521;50.160;20.802;2022-09-14T05:16:44;98706.77;;;15.57;66.24
59315;BME280;46521;50.160;20.802;2022-09-14T05:26:46;98697.66;;;15.64;66.00
59315;BME280;46521;50.160;20.802;2022-09-14T05:36:47;98707.14;;;15.79;66.16
59315;BME280;46521;50.160;20.802;2022-09-14T05:46:49;98712.89;;;15.94;66.07
59315;BME280;46521;50.160;20.802;2022-09-14T05:56:50;98711.56;;;16.15;66.16
59315;BME280;46521;50.160;20.802;2022-09-14T06:06:51;98713.28;;;16.64;65.21
59315;BME280;46521;50.160;20.802;2022-09-14T06:16:53;98708.31;;;17.15;65.13
59315;BME280;46521;50.160;20.802;2022-09-14T06:26:54;98710.36;;;17.48;64.92
59315;BME280;46521;50.160;20.802;2022-09-14T06:36:56;98723.73;;;18.17;63.90
59315;BME280;46521;50.160;20.802;2022-09-14T06:46:57;98712.88;;;18.24;64.09
59315;BME280;46521;50.160;20.802;2022-09-14T06:56:58;98714.41;;;19.22;63.12
59315;BME280;46521;50.160;20.802;2022-09-14T07:07:00;98729.97;;;19.42;62.36
59315;BME280;46521;50.160;20.802;2022-09-14T07:17:01;98736.56;;;19.34;62.17
59315;BME280;46521;50.160;20.802;2022-09-14T07:27:03;98725.27;;;19.54;61.94
59315;BME280;46521;50.160;20.802;2022-09-14T07:37:04;98712.41;;;20.01;61.76
59315;BME280;46521;50.160;20.802;2022-09-14T07:47:05;98716.34;;;20.47;60.54
59315;BME280;46521;50.160;20.802;2022-09-14T07:57:07;98733.18;;;20.38;60.12
59315;BME280;46521;50.160;20.802;2022-09-14T08:07:08;98728.91;;;20.42;59.75
59315;BME280;46521;50.160;20.802;2022-09-14T08:17:10;98720.75;;;20.96;58.96
59315;BME280;46521;50.160;20.802;2022-09-14T08:27:11;98713.70;;;20.85;58.59
59315;BME280;46521;50.160;20.802;2022-09-14T08:37:13;98707.41;;;20.69;58.82
59315;BME280;46521;50.160;20.802;2022-09-14T08:57:29;98701.86;;;20.86;58.39
59315;BME280;46521;50.160;20.802;2022-09-14T09:07:47;98696.84;;;21.00;58.65
59315;BME280;46521;50.160;20.802;2022-09-14T09:18:05;98697.34;;;21.39;58.20
59315;BME280;46521;50.160;20.802;2022-09-14T09:28:09;98694.71;;;21.55;57.91
59315;BME280;46521;50.160;20.802;2022-09-14T09:38:15;98696.39;;;21.71;57.49
59315;BME280;46521;50.160;20.802;2022-09-14T09:48:19;98689.42;;;21.81;57.45
59315;BME280;46521;50.160;20.802;2022-09-14T09:58:35;98686.77;;;22.06;57.13
59315;BME280;46521;50.160;20.802;2022-09-14T10:08:42;98690.86;;;22.40;56.10
59315;BME280;46521;50.160;20.802;2022-09-14T10:18:46;98682.49;;;22.72;55.65
59315;BME280;46521;50.160;20.802;2022-09-14T10:28:49;98679.10;;;23.42;54.83
59315;BME280;46521;50.160;20.802;2022-09-14T10:39:21;98679.38;;;23.96;54.05
59315;BME280;46521;50.160;20.802;2022-09-14T10:49:48;98676.38;;;24.37;53.38
59315;BME280;46521;50.160;20.802;2022-09-14T10:59:55;98671.07;;;24.26;52.34
59315;BME280;46521;50.160;20.802;2022-09-14T11:30:38;98625.64;;;24.63;50.96
59315;BME280;46521;50.160;20.802;2022-09-14T11:40:46;98616.36;;;24.40;50.51
59315;BME280;46521;50.160;20.802;2022-09-14T11:50:55;98615.92;;;24.27;50.53
59315;BME280;46521;50.160;20.802;2022-09-14T12:01:02;98607.97;;;24.41;50.36
59315;BME280;46521;50.160;20.802;2022-09-14T12:11:24;98601.80;;;23.67;50.59
59315;BME280;46521;50.160;20.802;2022-09-14T12:21:26;98596.13;;;23.13;51.16
59315;BME280;46521;50.160;20.802;2022-09-14T12:51:48;98608.70;;;22.22;52.42
59315;BME280;46521;50.160;20.802;2022-09-14T13:01:59;98604.41;;;22.05;53.22
59315;BME280;46521;50.160;20.802;2022-09-14T13:12:09;98608.95;;;21.84;53.29
59315;BME280;46521;50.160;20.802;2022-09-14T13:22:18;98622.11;;;21.65;53.99
59315;BME280;46521;50.160;20.802;2022-09-14T13:32:20;98621.72;;;21.36;54.41
59315;BME280;46521;50.160;20.802;2022-09-14T13:42:22;98629.35;;;20.91;55.05
59315;BME280;46521;50.160;20.802;2022-09-14T14:02:26;98615.23;;;20.31;57.09
59315;BME280;46521;50.160;20.802;2022-09-14T14:12:36;98613.15;;;20.06;57.86
59315;BME280;46521;50.160;20.802;2022-09-14T14:22:39;98588.36;;;19.66;58.89
59315;BME280;46521;50.160;20.802;2022-09-14T14:32:55;98588.75;;;19.53;60.54
59315;BME280;46521;50.160;20.802;2022-09-14T14:42:58;98586.06;;;19.53;61.42
59315;BME280;46521;50.160;20.802;2022-09-14T14:53:03;98590.88;;;19.51;62.13
59315;BME280;46521;50.160;20.802;2022-09-14T15:03:05;98578.06;;;19.31;63.08
59315;BME280;46521;50.160;20.802;2022-09-14T15:13:08;98584.13;;;19.21;63.83
59315;BME280;46521;50.160;20.802;2022-09-14T15:23:11;98574.66;;;19.13;64.00
59315;BME280;46521;50.160;20.802;2022-09-14T15:33:14;98570.80;;;19.04;64.37
59315;BME280;46521;50.160;20.802;2022-09-14T15:43:16;98571.19;;;18.90;64.88
59315;BME280;46521;50.160;20.802;2022-09-14T15:53:17;98584.00;;;18.88;65.33
59315;BME280;46521;50.160;20.802;2022-09-14T16:03:18;98587.56;;;18.94;65.57
59315;BME280;46521;50.160;20.802;2022-09-14T16:13:20;98564.86;;;18.80;65.67
59315;BME280;46521;50.160;20.802;2022-09-14T16:23:21;98558.12;;;18.77;65.98
59315;BME280;46521;50.160;20.802;2022-09-14T16:33:22;98566.45;;;18.81;66.28
59315;BME280;46521;50.160;20.802;2022-09-14T16:43:25;98572.59;;;18.76;66.40
59315;BME280;46521;50.160;20.802;2022-09-14T16:53:28;98565.54;;;18.70;66.26
59315;BME280;46521;50.160;20.802;2022-09-14T17:03:29;98553.31;;;18.79;66.68
59315;BME280;46521;50.160;20.802;2022-09-14T17:13:31;98562.48;;;18.83;66.74
59315;BME280;46521;50.160;20.802;2022-09-14T17:23:34;98559.00;;;18.83;67.12
59315;BME280;46521;50.160;20.802;2022-09-14T17:33:35;98544.67;;;18.72;67.30
59315;BME280;46521;50.160;20.802;2022-09-14T17:43:37;98532.27;;;18.66;67.56
59315;BME280;46521;50.160;20.802;2022-09-14T17:53:42;98551.36;;;18.52;67.55
59315;BME280;46521;50.160;20.802;2022-09-14T18:03:49;98551.66;;;18.34;67.94
59315;BME280;46521;50.160;20.802;2022-09-14T18:13:51;98554.11;;;18.18;68.44
59315;BME280;46521;50.160;20.802;2022-09-14T18:23:53;98546.50;;;18.10;68.84
59315;BME280;46521;50.160;20.802;2022-09-14T18:33:57;98535.63;;;18.00;69.21
59315;BME280;46521;50.160;20.802;2022-09-14T18:44:00;98518.81;;;17.88;69.63
59315;BME280;46521;50.160;20.802;2022-09-14T18:54:04;98506.62;;;17.92;69.83
59315;BME280;46521;50.160;20.802;2022-09-14T19:04:07;98511.14;;;17.91;70.24
59315;BME280;46521;50.160;20.802;2022-09-14T19:14:10;98524.76;;;17.90;70.51
59315;BME280;46521;50.160;20.802;2022-09-14T19:24:14;98514.52;;;17.87;70.93
59315;BME280;46521;50.160;20.802;2022-09-14T19:34:22;98507.98;;;17.94;71.04
59315;BME280;46521;50.160;20.802;2022-09-14T19:44:24;98499.22;;;17.99;71.14
59315;BME280;46521;50.160;20.802;2022-09-14T19:54:25;98490.22;;;18.05;71.11
59315;BME280;46521;50.160;20.802;2022-09-14T20:04:26;98465.27;;;17.99;71.05
59315;BME280;46521;50.160;20.802;2022-09-14T20:14:28;98479.88;;;17.92;71.27
59315;BME280;46521;50.160;20.802;2022-09-14T20:24:29;98466.86;;;17.83;71.18
59315;BME280;46521;50.160;20.802;2022-09-14T20:34:32;98468.25;;;17.86;71.50
59315;BME280;46521;50.160;20.802;2022-09-14T20:44:34;98457.30;;;17.88;71.20
59315;BME280;46521;50.160;20.802;2022-09-14T20:54:35;98466.86;;;17.83;71.36
59315;BME280;46521;50.160;20.802;2022-09-14T21:04:37;98464.67;;;17.80;71.65
59315;BME280;46521;50.160;20.802;2022-09-14T21:14:38;98444.28;;;17.74;71.47
59315;BME280;46521;50.160;20.802;2022-09-14T21:24:39;98455.53;;;17.76;71.94
59315;BME280;46521;50.160;20.802;2022-09-14T21:34:42;98447.20;;;17.73;71.95
59315;BME280;46521;50.160;20.802;2022-09-14T21:44:43;98425.32;;;17.76;72.04
59315;BME280;46521;50.160;20.802;2022-09-14T21:54:44;98422.95;;;17.79;72.07
59315;BME280;46521;50.160;20.802;2022-09-14T22:04:46;98429.91;;;17.80;72.29
59315;BME280;46521;50.160;20.802;2022-09-14T22:14:47;98410.14;;;17.81;72.79
59315;BME280;46521;50.160;20.802;2022-09-14T22:24:49;98413.86;;;17.80;73.03
59315;BME280;46521;50.160;20.802;2022-09-14T22:34:50;98402.92;;;17.82;72.56
59315;BME280;46521;50.160;20.802;2022-09-14T23:05:37;98383.70;;;17.85;72.98
59315;BME280;46521;50.160;20.802;2022-09-14T23:15:39;98363.14;;;17.86;73.23
59315;BME280;46521;50.160;20.802;2022-09-14T23:26:07;98344.09;;;17.82;73.16
59315;BME280;46521;50.160;20.802;2022-09-14T23:36:36;98344.21;;;17.70;72.66
59315;BME280;46521;50.160;20.802;2022-09-14T23:46:42;98342.58;;;17.69;73.40
59315;BME280;46521;50.160;20.802;2022-09-14T23:56:43;98311.82;;;17.67;73.50
